• Join FlightAware (Why Join?)
  • Login
  • US Flag 
09:54AM EDT


 

Airport Tracker/Info


-or-


 

Live Flight TrackerFlight Track Log ✈ JBU83 ✈ 20-Jul-2013 ✈ KJFK - KMCO

Flight Track Log - Related Links

Times and Time Zones

All times are in EDT time to prevent confusion due to time zone crossing. See the JBU83 flight status page for this flight to view local times or setup timezone preferences in your user account.

Time Position Orientation Groundspeed Altitude Reporting Facility
EDT Latitude Longitude Course Direction KTS MPH feet Rate Location/Type
03:34PM 40.6225 -73.8881 220° Southwest 179 206 2,500  Level New York Center
03:35PM 40.5764 -73.8231 133° Southeast 146 168 5,600 2,700 Climbing New York Center
03:36PM 40.3346 -73.5013 143° Southeast  Level FlightAware Approximate
03:36PM 40.5644 -73.7161 98° East 259 298 7,900  Level New York Center
03:37PM 40.2499 -73.3999 143° Southeast  Level FlightAware Approximate
03:37PM 40.5508 -73.6008 99° East 303 349 10,300  Level New York Center
03:38PM 40.1492 -73.3085 146° Southeast  Level FlightAware Approximate
03:38PM 40.4711 -73.5319 147° Southeast 301 346 11,400  Level New York Center
03:39PM 40.0518 -73.2879 223° Southwest  Level FlightAware Approximate
03:39PM 40.3869 -73.4822 156° South 349 402 13,500  Level New York Center
03:40PM 39.9598 -73.3933 220° Southwest  Level FlightAware Approximate
03:40PM 40.2839 -73.4239 157° South 368 423 16,800  Level New York Center
03:41PM 40.2025 -73.4289 183° South 342 394 17,800 960 Climbing New York Center
03:42PM 40.1117 -73.4903 207° Southwest 346 398 18,800 1,320 Climbing New York Center
03:45PM 39.8814 -73.6664 210° Southwest 393 452 22,300 1,380 Climbing Washington Center
03:46PM 39.7825 -73.7419 210° Southwest 405 466 23,500 1,140 Climbing Washington Center
03:47PM 39.6817 -73.8175 210° Southwest 417 480 24,600 1,140 Climbing Washington Center
03:48PM 39.5806 -73.8925 210° Southwest 424 488 25,800 900 Climbing Washington Center
03:49PM 39.4711 -73.9731 210° Southwest 437 503 26,500 720 Climbing Washington Center
03:50PM 39.3806 -74.0478 213° Southwest 445 512 27,300 900 Climbing Washington Center
03:51PM 39.2753 -74.1358 213° Southwest 445 512 28,300 960 Climbing Washington Center
03:52PM 39.1658 -74.2236 212° Southwest 457 526 29,300 960 Climbing Washington Center
03:53PM 39.0628 -74.3083 213° Southwest 457 526 30,300 960 Climbing Washington Center
03:54PM 38.9592 -74.3931 212° Southwest 452 520 31,300 780 Climbing Washington Center
03:55PM 38.8517 -74.4800 212° Southwest 452 520 32,000 540 Climbing Washington Center
03:56PM 38.7442 -74.5697 213° Southwest 452 520 32,500 600 Climbing Washington Center
03:57PM 38.6094 -74.6750 211° Southwest 468 539 33,300 720 Climbing Washington Center
03:58PM 38.5017 -74.7639 213° Southwest 468 539 34,000 660 Climbing Washington Center
03:59PM 38.3919 -74.8528 212° Southwest 474 545 34,700 660 Climbing Washington Center
04:00PM 38.2858 -74.9383 212° Southwest 474 545 35,400 600 Climbing Washington Center
04:01PM 38.1758 -75.0239 211° Southwest 474 545 35,900 480 Climbing Washington Center
04:02PM 38.0658 -75.1117 212° Southwest 469 540 36,400 480 Climbing Washington Center
04:03PM 37.9597 -75.1994 213° Southwest 469 540 36,900 540 Climbing Washington Center
04:04PM 37.8494 -75.2814 210° Southwest 474 545 37,500 540 Climbing Washington Center
04:05PM 37.7433 -75.3658 212° Southwest 469 540 38,000 240 Climbing Washington Center
04:06PM 37.6328 -75.4503 211° Southwest 469 540 38,000  Level Washington Center
04:07PM 37.5267 -75.5342 212° Southwest 469 540 38,000  Level Washington Center
04:08PM 37.4181 -75.6181 212° Southwest 469 540 38,000  Level Washington Center
04:09PM 37.3097 -75.7014 211° Southwest 469 540 38,000 -60 Level Washington Center
04:10PM 37.2031 -75.7847 212° Southwest 464 534 37,900  Descending Washington Center
04:11PM 37.0925 -75.8678 211° Southwest 464 534 38,000  Climbing Washington Center
04:12PM 36.9669 -75.9583 210° Southwest 471 542 38,000  Level Washington Center
04:13PM 36.8625 -76.0383 212° Southwest 471 542 38,000  Level Washington Center
04:14PM 36.7558 -76.1208 212° Southwest 461 531 38,000  Level Washington Center
04:15PM 36.6428 -76.2056 211° Southwest 466 536 38,000  Level Washington Center
04:16PM 36.5358 -76.2872 212° Southwest 466 536 38,000  Level Washington Center
04:17PM 36.4289 -76.3664 211° Southwest 461 531 38,000  Level Washington Center
04:18PM 36.3200 -76.4478 211° Southwest 461 531 38,000  Level Washington Center
04:19PM 36.2086 -76.5289 210° Southwest 456 525 38,000  Level Washington Center
04:20PM 36.1017 -76.6100 212° Southwest 456 525 38,000  Level Washington Center
04:21PM 35.9925 -76.6908 211° Southwest 456 525 38,000  Level Washington Center
04:22PM 35.8811 -76.7686 210° Southwest 456 525 38,000  Level Washington Center
04:23PM 35.7717 -76.8517 212° Southwest 461 531 38,000  Level Washington Center
04:24PM 35.6625 -76.9317 211° Southwest 461 531 38,000  Level Washington Center
04:25PM 35.5572 -77.0064 210° Southwest 455 524 38,000  Level Washington Center
04:26PM 35.4456 -77.0886 211° Southwest 450 518 38,000  Level Washington Center
04:27PM 35.3383 -77.1656 210° Southwest 450 518 38,000  Level Washington Center
04:28PM 35.2267 -77.2447 210° Southwest 450 518 38,000  Level Washington Center
04:29PM 35.1169 -77.3239 211° Southwest 450 518 38,000  Level Washington Center
04:30PM 35.0072 -77.4000 210° Southwest 455 524 38,000  Level Washington Center
04:31PM 34.8978 -77.4786 211° Southwest 455 524 38,000  Level Washington Center
04:32PM 34.7900 -77.5519 209° Southwest 455 524 38,000  Level Washington Center
04:33PM 34.6642 -77.5944 196° South 450 518 38,000  Level Washington Center
04:34PM 34.5403 -77.6342 195° South 461 531 38,000  Level Washington Center
04:35PM 34.4144 -77.6789 196° South 466 536 38,000  Level Washington Center
04:36PM 34.2886 -77.7211 195° South 466 536 38,000  Level Washington Center
04:37PM 34.1625 -77.7631 195° South 472 543 38,000  Level Washington Center
04:38PM 34.0344 -77.8097 197° South 477 549 38,000  Level Washington Center
04:39PM 33.8550 -77.8636 194° South 475 547 38,000  Level Jacksonville Center
04:40PM 33.7317 -77.9108 198° South 475 547 38,000 -60 Level Jacksonville Center
04:41PM 33.6103 -77.9525 196° South 469 540 37,900 -60 Descending Jacksonville Center
04:42PM 33.4847 -77.9944 196° South 469 540 37,900  Level Jacksonville Center
04:43PM 33.3592 -78.0386 196° South 469 540 38,000  Climbing Jacksonville Center
04:44PM 33.2383 -78.0997 203° Southwest 469 540 38,000  Level Jacksonville Center
04:45PM 33.1217 -78.1606 204° Southwest 469 540 38,000 -60 Level Jacksonville Center
04:46PM 33.0031 -78.2239 204° Southwest 469 540 37,900  Descending Jacksonville Center
04:47PM 32.8819 -78.2819 202° Southwest 469 540 38,000  Climbing Jacksonville Center
04:48PM 32.7653 -78.3422 203° Southwest 469 540 38,000  Level Jacksonville Center
04:49PM 32.6464 -78.4025 203° Southwest 469 540 38,000 -60 Level Jacksonville Center
04:50PM 32.5272 -78.4603 202° Southwest 469 540 37,900  Descending Jacksonville Center
04:51PM 32.4103 -78.5200 203° Southwest 469 540 38,000  Climbing Jacksonville Center
04:52PM 32.2833 -78.5900 205° Southwest 469 540 38,000  Level Jacksonville Center
04:53PM 32.1644 -78.6519 204° Southwest 469 540 38,000 -60 Level Jacksonville Center
04:54PM 32.0494 -78.7064 202° Southwest 469 540 37,900  Descending Jacksonville Center
04:55PM 31.9281 -78.7633 202° Southwest 469 540 38,000  Climbing Jacksonville Center
04:56PM 31.8086 -78.8175 201° Southwest 469 540 38,000  Level Jacksonville Center
04:57PM 31.6894 -78.8717 201° Southwest 465 535 38,000  Level Jacksonville Center
04:58PM 31.5700 -78.9281 202° Southwest 465 535 38,000 -60 Level Jacksonville Center
04:59PM 31.4531 -78.9864 203° Southwest 465 535 37,900  Descending Jacksonville Center
05:00PM 31.3356 -79.0400 201° Southwest 466 536 38,000  Climbing Jacksonville Center
05:01PM 31.2161 -79.0958 202° Southwest 461 531 38,000  Level Jacksonville Center
05:02PM 31.0969 -79.1542 203° Southwest 458 527 38,000  Level Jacksonville Center
05:03PM 30.9939 -79.1994 201° Southwest 468 539 38,000  Level Jacksonville Center
05:04PM 30.8700 -79.2525 200° South 469 540 38,000  Level Jacksonville Center
05:05PM 30.7358 -79.3036 198° South 459 528 38,000  Level Jacksonville Center
05:06PM 30.6161 -79.3517 199° South 465 535 38,000  Level Jacksonville Center
05:08PM 30.3925 -79.4428 199° South 459 528 38,000  Level Miami Center
05:09PM 30.2747 -79.4975 202° Southwest 457 526 38,000  Level Miami Center
05:10PM 30.1569 -79.5544 203° Southwest 457 526 38,000  Level Miami Center
05:11PM 30.0369 -79.6114 202° Southwest 463 533 38,000  Level Miami Center
05:12PM 29.9128 -79.6656 201° Southwest 469 540 38,000  Level Miami Center
05:13PM 29.7928 -79.7222 202° Southwest 476 548 38,000 -360 Level Miami Center
05:14PM 29.6622 -79.7856 203° Southwest 468 539 37,300 -1,020 Descending Miami Center
05:15PM 29.5422 -79.8469 204° Southwest 468 539 36,000 -1,740 Descending Miami Center
05:16PM 29.4161 -79.8981 199° South 475 547 33,900 -2,880 Descending Miami Center
05:17PM 29.2894 -79.9589 203° Southwest 482 555 30,300 -3,900 Descending Miami Center
05:18PM 29.1592 -80.0122 200° South 493 567 26,200 -3,780 Descending Miami Center
05:19PM 29.0325 -80.0728 203° Southwest 493 567 22,800 -3,360 Descending Miami Center
05:20PM 28.9264 -80.1525 213° Southwest 494 568 19,500 -2,820 Descending Miami Center
05:22PM 28.8333 -80.4000 247° West 408 470 14,300 -1,860 Descending Orlando TRACON
05:23PM 28.8167 -80.5167 261° West 335 386 14,000 -840 Descending Orlando TRACON
05:24PM 28.8000 -80.6000 257° West 288 331 12,800 -1,500 Descending Orlando TRACON
05:25PM 28.8000 -80.7000 270° West 293 337 11,100 -1,740 Descending Orlando TRACON
05:26PM 28.7833 -80.7833 257° West 283 326 9,400 -1,860 Descending Orlando TRACON
05:27PM 28.7667 -80.8667 257° West 284 327 7,600 -1,680 Descending Orlando TRACON
05:28PM 28.7500 -80.9667 259° West 281 323 6,100 -900 Descending Orlando TRACON
05:29PM 28.7500 -81.0333 270° West 279 321 6,000 -60 Descending Orlando TRACON
05:30PM 28.7333 -81.1167 257° West 276 318 6,000 -960 Level Orlando TRACON
05:31PM 28.7000 -81.2167 249° West 261 300 4,100 -1,440 Descending Orlando TRACON
05:32PM 28.6500 -81.2667 221° Southwest 235 270 3,000 -600 Descending Orlando TRACON
05:33PM 28.6000 -81.2833 196° South 198 228 3,000 -480 Level Orlando TRACON
05:34PM 28.5500 -81.2833 180° South 182 209 2,100 -900 Descending Orlando TRACON
05:35PM 28.5000 -81.2833 180° South 149 171 1,200 -780 Descending Orlando TRACON
05:36PM 28.4667 -81.2833 180° South 134 154 500 -720 Descending Orlando TRACON